createdAt,value
2019-04-28T00:01:31.142Z,18.30
2019-04-28T00:03:59.512Z,17.80
2019-04-28T00:06:27.787Z,20.72
2019-04-28T00:08:56.089Z,17.40
2019-04-28T00:11:24.402Z,21.73
2019-04-28T00:13:53.575Z,22.50
2019-04-28T00:16:22.876Z,24.72
2019-04-28T00:18:51.784Z,24.40
2019-04-28T00:21:36.848Z,21.67
2019-04-28T00:24:11.400Z,19.48
2019-04-28T00:26:47.512Z,21.93
2019-04-28T00:29:16.072Z,32.42
2019-04-28T00:31:44.481Z,23.37
2019-04-28T00:34:13.052Z,21.80
2019-04-28T00:36:43.111Z,17.75
2019-04-28T00:39:11.719Z,12.40
2019-04-28T00:41:42.038Z,18.40
2019-04-28T00:44:11.954Z,12.70
2019-04-28T00:46:41.707Z,22.17
2019-04-28T00:49:11.824Z,12.33
2019-04-28T00:51:41.529Z,16.30
2019-04-28T00:54:12.105Z,21.10
2019-04-28T00:56:42.106Z,16.87
2019-04-28T00:59:12.176Z,12.75
2019-04-28T01:01:44.809Z,13.50
2019-04-28T01:04:13.167Z,11.07
2019-04-28T01:06:43.029Z,16.55
2019-04-28T01:09:11.849Z,14.03
2019-04-28T01:11:41.450Z,14.58
2019-04-28T01:14:11.508Z,18.65
2019-04-28T01:16:49.619Z,15.03
2019-04-28T01:19:25.342Z,20.80
2019-04-28T01:22:07.169Z,16.37
2019-04-28T01:24:35.471Z,20.50
2019-04-28T01:27:05.401Z,14.93
2019-04-28T01:29:33.867Z,22.07
2019-04-28T01:32:06.981Z,20.05
2019-04-28T01:34:35.272Z,19.92
2019-04-28T01:37:04.659Z,22.17
2019-04-28T01:39:32.951Z,17.10
2019-04-28T01:42:01.571Z,23.10
2019-04-28T01:44:29.875Z,18.17
2019-04-28T01:47:00.964Z,16.52
2019-04-28T01:49:29.506Z,17.37
2019-04-28T01:52:00.495Z,20.50
2019-04-28T01:54:30.258Z,18.75
2019-04-28T01:57:01.034Z,17.20
2019-04-28T01:59:30.241Z,13.88
2019-04-28T02:02:00.092Z,17.25
2019-04-28T02:04:32.097Z,23.52
2019-04-28T02:06:59.864Z,22.52
2019-04-28T02:09:29.748Z,20.20
2019-04-28T02:12:00.782Z,15.53
2019-04-28T02:14:36.389Z,23.15
2019-04-28T02:17:07.863Z,15.83
2019-04-28T02:19:36.149Z,22.27
2019-04-28T02:22:12.048Z,18.13
2019-04-28T02:24:40.589Z,16.63
2019-04-28T02:27:10.629Z,18.30
2019-04-28T02:29:41.432Z,26.25
2019-04-28T02:32:15.041Z,25.12
2019-04-28T02:34:45.364Z,27.83
2019-04-28T02:37:13.661Z,31.30
2019-04-28T02:39:43.200Z,23.75
2019-04-28T02:42:11.577Z,22.30
2019-04-28T02:44:40.940Z,20.80
2019-04-28T02:47:10.767Z,20.70
2019-04-28T02:49:52.356Z,18.52
2019-04-28T02:52:31.082Z,25.08
2019-04-28T02:55:03.079Z,18.45
2019-04-28T02:57:33.948Z,19.67
2019-04-28T03:00:11.558Z,20.88
2019-04-28T03:02:41.355Z,17.48
2019-04-28T03:05:11.794Z,21.93
2019-04-28T03:07:41.082Z,17.73
2019-04-28T03:10:11.040Z,18.48
2019-04-28T03:12:41.469Z,24.57
2019-04-28T03:15:11.258Z,19.40
2019-04-28T03:17:40.754Z,19.92
2019-04-28T03:20:15.427Z,23.98
2019-04-28T03:22:52.537Z,26.27
2019-04-28T03:25:30.615Z,20.10
2019-04-28T03:28:16.365Z,20.30
2019-04-28T03:31:06.397Z,20.40
2019-04-28T03:33:34.207Z,33.30
2019-04-28T03:36:08.524Z,17.57
2019-04-28T03:38:35.882Z,26.42
2019-04-28T03:41:06.223Z,23.60
2019-04-28T03:43:34.576Z,28.63
2019-04-28T03:46:10.484Z,25.70
2019-04-28T03:51:05.742Z,20.35
2019-04-28T03:53:34.099Z,23.77
2019-04-28T03:56:03.433Z,31.97
2019-04-28T03:58:32.762Z,28.98
2019-04-28T04:01:03.216Z,26.15
2019-04-28T04:03:31.846Z,30.73
2019-04-28T04:06:00.915Z,29.05
2019-04-28T04:08:31.997Z,27.66
2019-04-28T04:11:14.037Z,34.20
2019-04-28T04:13:47.600Z,31.20
2019-04-28T04:16:24.071Z,30.23
2019-04-28T04:18:56.784Z,28.92
2019-04-28T04:21:25.070Z,28.52
2019-04-28T04:23:55.093Z,30.32
2019-04-28T04:26:25.489Z,34.45
2019-04-28T04:28:53.860Z,27.25
2019-04-28T04:31:22.148Z,28.43
2019-04-28T04:33:53.559Z,35.35
2019-04-28T04:36:24.188Z,30.32
2019-04-28T04:38:53.819Z,28.12
2019-04-28T04:41:22.503Z,25.97
2019-04-28T04:43:51.520Z,35.60
2019-04-28T04:46:22.381Z,25.57
2019-04-28T04:48:51.205Z,32.20
2019-04-28T04:51:21.272Z,24.05
2019-04-28T04:53:50.991Z,28.17
2019-04-28T04:56:21.165Z,31.02
2019-04-28T04:58:50.422Z,27.25
2019-04-28T05:01:27.728Z,21.83
2019-04-28T05:04:17.108Z,25.05
2019-04-28T05:06:45.398Z,30.15
2019-04-28T05:09:15.719Z,31.77
2019-04-28T05:11:44.288Z,21.90
2019-04-28T05:14:15.644Z,26.00
2019-04-28T05:16:43.938Z,25.60
2019-04-28T05:19:14.516Z,25.68
2019-04-28T05:21:44.153Z,27.20
2019-04-28T05:24:32.463Z,21.35
2019-04-28T05:27:06.627Z,27.55
2019-04-28T05:29:35.001Z,21.00
2019-04-28T05:32:03.744Z,27.25
2019-04-28T05:34:32.158Z,31.50
2019-04-28T05:37:01.480Z,24.30
2019-04-28T05:39:37.654Z,26.20
2019-04-28T05:44:40.602Z,22.42
2019-04-28T05:47:11.468Z,27.22
2019-04-28T05:49:41.402Z,20.23
2019-04-28T05:52:11.966Z,28.87
2019-04-28T05:54:49.630Z,26.05
2019-04-28T05:57:24.431Z,25.02
2019-04-28T06:00:03.594Z,24.13
2019-04-28T06:02:40.886Z,25.62
2019-04-28T06:05:10.166Z,24.12
2019-04-28T06:07:43.256Z,23.98
2019-04-28T06:10:13.637Z,28.92
2019-04-28T06:12:42.003Z,19.93
2019-04-28T06:15:12.016Z,22.25
2019-04-28T06:17:47.330Z,28.32
2019-04-28T06:20:16.613Z,23.30
2019-04-28T06:22:44.985Z,23.40
2019-04-28T06:25:13.337Z,22.20
2019-04-28T06:27:41.637Z,25.52
2019-04-28T06:30:09.921Z,23.73
2019-04-28T06:32:38.215Z,25.68
2019-04-28T06:35:07.944Z,31.30
2019-04-28T06:37:39.687Z,23.25
2019-04-28T06:40:08.046Z,21.17
2019-04-28T06:42:37.254Z,25.10
2019-04-28T06:45:06.397Z,22.93
2019-04-28T06:47:35.100Z,29.02
2019-04-28T06:50:05.911Z,23.47
2019-04-28T06:52:36.190Z,28.07
2019-04-28T06:55:06.317Z,21.12
2019-04-28T06:57:34.630Z,18.23
2019-04-28T07:00:03.825Z,20.62
2019-04-28T07:02:32.325Z,21.00
2019-04-28T07:05:02.069Z,17.65
2019-04-28T07:07:30.860Z,21.48
2019-04-28T07:09:59.753Z,15.50
2019-04-28T07:12:28.080Z,20.92
2019-04-28T07:15:05.508Z,16.77
2019-04-28T07:17:33.870Z,17.15
2019-04-28T07:20:06.788Z,27.23
2019-04-28T07:22:35.067Z,19.73
2019-04-28T07:25:03.524Z,21.17
2019-04-28T07:27:31.820Z,22.00
2019-04-28T07:30:01.026Z,19.23
2019-04-28T07:32:29.308Z,16.50
2019-04-28T07:35:04.468Z,16.20
2019-04-28T07:37:33.083Z,15.35
2019-04-28T07:40:01.642Z,15.15
2019-04-28T07:42:30.004Z,16.62
2019-04-28T07:44:59.545Z,14.15
2019-04-28T07:47:33.881Z,13.08
2019-04-28T07:50:03.502Z,16.37
2019-04-28T07:52:35.600Z,15.48
2019-04-28T07:55:11.294Z,16.97
2019-04-28T07:57:39.654Z,15.55
2019-04-28T08:00:08.088Z,14.10
2019-04-28T08:02:36.402Z,15.98
2019-04-28T08:05:06.136Z,11.40
2019-04-28T08:07:36.841Z,19.15
2019-04-28T08:10:05.414Z,12.75
2019-04-28T08:12:34.712Z,15.97
2019-04-28T08:15:03.412Z,14.90
2019-04-28T08:17:31.813Z,14.55
2019-04-28T08:20:02.083Z,18.95
2019-04-28T08:22:30.366Z,20.00
2019-04-28T08:24:58.660Z,16.50
2019-04-28T08:27:33.672Z,16.93
2019-04-28T08:30:02.253Z,16.73
2019-04-28T08:32:38.333Z,13.77
2019-04-28T08:35:06.947Z,13.18
2019-04-28T08:37:37.213Z,11.30
2019-04-28T08:40:05.504Z,15.23
2019-04-28T08:42:33.788Z,18.60
2019-04-28T08:45:02.168Z,12.78
2019-04-28T08:47:31.718Z,13.40
2019-04-28T08:50:03.189Z,13.28
2019-04-28T08:52:33.541Z,11.73
2019-04-28T08:55:01.843Z,12.10
2019-04-28T08:57:31.125Z,13.13
2019-04-28T09:00:01.577Z,13.78
2019-04-28T09:02:29.943Z,15.38
2019-04-28T09:05:04.769Z,10.03
2019-04-28T09:07:33.141Z,10.40
2019-04-28T09:10:01.440Z,15.70
2019-04-28T09:12:31.636Z,14.47
2019-04-28T09:14:59.921Z,14.05
2019-04-28T09:17:34.956Z,9.75
2019-04-28T09:20:04.053Z,12.95
2019-04-28T09:22:33.348Z,16.20
2019-04-28T09:25:01.718Z,14.00
2019-04-28T09:27:31.297Z,11.22
2019-04-28T09:29:59.673Z,13.35
2019-04-28T09:32:27.956Z,13.15
2019-04-28T09:34:56.256Z,19.30
2019-04-28T09:37:24.539Z,11.50
2019-04-28T09:39:54.472Z,15.53
2019-04-28T09:42:31.419Z,10.80
2019-04-28T09:45:01.925Z,12.37
2019-04-28T09:47:30.293Z,16.73
2019-04-28T09:50:00.560Z,13.22
2019-04-28T09:52:28.856Z,11.33
2019-04-28T09:54:58.137Z,12.70
2019-04-28T09:57:32.487Z,9.90
2019-04-28T10:00:00.769Z,16.47
2019-04-28T10:02:29.056Z,11.33
2019-04-28T10:04:57.618Z,16.32
2019-04-28T10:07:25.989Z,11.48
2019-04-28T10:09:54.348Z,13.65
2019-04-28T10:12:27.304Z,14.43
2019-04-28T10:14:55.359Z,11.15
2019-04-28T10:17:23.664Z,13.68
2019-04-28T10:19:52.215Z,10.80
2019-04-28T10:22:20.781Z,11.25
2019-04-28T10:24:49.075Z,14.00
2019-04-28T10:27:17.364Z,12.13
2019-04-28T10:29:46.599Z,9.50
2019-04-28T10:32:14.886Z,11.80
2019-04-28T10:34:54.318Z,14.60
2019-04-28T10:37:13.567Z,9.68
2019-04-28T10:39:52.276Z,12.82
2019-04-28T10:42:20.557Z,14.98
2019-04-28T10:44:54.791Z,11.15
2019-04-28T10:47:27.789Z,12.20
2019-04-28T10:50:01.895Z,14.03
2019-04-28T10:52:30.452Z,6.75
2019-04-28T10:54:59.679Z,7.50
2019-04-28T10:57:28.024Z,11.03
2019-04-28T14:14:37.751Z,7.42
2019-04-28T14:17:06.063Z,6.42
2019-04-28T14:19:36.328Z,9.98
2019-04-28T14:22:04.644Z,6.67
2019-04-28T14:24:33.950Z,7.35
2019-04-28T14:27:02.615Z,15.27
2019-04-28T14:29:31.078Z,9.58
2019-04-28T14:32:00.373Z,6.20
2019-04-28T14:34:28.721Z,5.47
2019-04-28T14:36:58.092Z,5.92
2019-04-28T14:39:27.347Z,5.72
2019-04-28T14:41:56.639Z,8.73
2019-04-28T14:44:25.009Z,10.75
2019-04-28T14:46:53.590Z,6.17
2019-04-28T14:49:24.211Z,6.27
2019-04-28T14:51:53.541Z,6.80
2019-04-28T14:54:21.850Z,6.95
2019-04-28T14:56:50.192Z,6.42
2019-04-28T14:59:18.502Z,6.00
2019-04-28T15:02:04.109Z,3.87
2019-04-28T15:04:49.164Z,4.03
2019-04-28T15:07:38.386Z,2.80
2019-04-28T15:10:14.154Z,2.52
2019-04-28T15:12:42.513Z,3.15
2019-04-28T15:15:10.892Z,2.85
2019-04-28T15:17:39.247Z,2.70
2019-04-28T15:20:08.580Z,3.02
2019-04-28T15:22:37.792Z,2.60
2019-04-28T15:25:07.081Z,3.83
2019-04-28T15:27:35.452Z,2.90
2019-04-28T15:30:04.580Z,2.70
2019-04-28T15:32:33.856Z,3.00
2019-04-28T15:35:02.140Z,3.00
2019-04-28T15:37:30.432Z,3.45
2019-04-28T15:39:58.720Z,3.60
2019-04-28T15:42:27.291Z,3.12
2019-04-28T15:44:55.643Z,6.20
2019-04-28T15:47:23.948Z,4.03
2019-04-28T15:49:52.244Z,5.50
2019-04-28T15:52:20.881Z,5.17
2019-04-28T15:54:49.253Z,4.50
2019-04-28T15:57:19.412Z,5.83
2019-04-28T15:59:47.729Z,5.72
2019-04-28T16:02:16.984Z,4.70
2019-04-28T16:04:47.467Z,5.50
2019-04-28T16:07:25.439Z,5.08
2019-04-28T16:09:53.844Z,7.87
2019-04-28T16:12:23.073Z,5.22
2019-04-28T16:14:51.643Z,5.55
2019-04-28T16:17:21.992Z,5.22
2019-04-28T16:19:52.728Z,5.37
2019-04-28T16:22:24.376Z,4.85
2019-04-28T16:24:52.664Z,4.90
2019-04-28T16:27:21.942Z,7.15
2019-04-28T16:29:51.752Z,4.40
2019-04-28T16:32:21.989Z,5.15
2019-04-28T16:34:50.676Z,5.67
2019-04-28T16:37:19.989Z,5.60
2019-04-28T16:39:48.960Z,4.47
2019-04-28T16:42:17.851Z,5.03
2019-04-28T16:44:48.490Z,4.90
2019-04-28T16:47:16.852Z,5.67
2019-04-28T16:49:45.132Z,6.00
2019-04-28T16:52:13.693Z,5.30
2019-04-28T16:54:46.356Z,7.53
2019-04-28T16:57:28.466Z,7.25
2019-04-28T17:00:04.641Z,6.05
2019-04-28T17:02:35.341Z,8.37
2019-04-28T17:05:03.772Z,5.10
2019-04-28T17:07:32.065Z,5.92
2019-04-28T17:10:00.638Z,6.78
2019-04-28T17:12:37.057Z,7.00
2019-04-28T17:15:07.020Z,7.53
2019-04-28T17:17:35.328Z,7.67
2019-04-28T17:20:06.008Z,8.10
2019-04-28T17:22:35.301Z,7.37
2019-04-28T17:25:04.453Z,6.05
2019-04-28T17:27:32.808Z,5.45
2019-04-28T17:30:02.028Z,8.63
2019-04-28T17:32:30.381Z,7.25
2019-04-28T17:35:00.061Z,5.92
2019-04-28T17:37:29.284Z,7.03
2019-04-28T17:39:57.845Z,6.65
2019-04-28T17:42:28.211Z,6.67
2019-04-28T17:44:56.806Z,5.75
2019-04-28T17:47:25.334Z,5.97
2019-04-28T17:49:54.839Z,7.60
2019-04-28T17:52:23.605Z,5.73
2019-04-28T17:54:54.408Z,4.71
2019-04-28T17:57:22.732Z,4.60
2019-04-28T17:59:52.692Z,5.22
2019-04-28T18:02:39.436Z,3.98
2019-04-28T18:05:09.638Z,5.30
2019-04-28T18:07:38.670Z,3.80
2019-04-28T18:10:09.108Z,4.58
2019-04-28T18:12:37.473Z,4.42
2019-04-28T18:15:11.765Z,4.25
2019-04-28T18:17:46.836Z,4.97
2019-04-28T18:20:15.120Z,3.90
2019-04-28T18:27:28.302Z,5.35
2019-04-28T18:32:27.258Z,4.70
2019-04-28T18:37:39.081Z,5.28
2019-04-28T18:42:41.616Z,5.23
2019-04-28T18:47:36.107Z,6.57
2019-04-28T18:52:29.756Z,7.92
2019-04-28T18:57:23.232Z,4.10
2019-04-28T19:02:27.253Z,6.75
2019-04-28T19:07:22.370Z,6.83
2019-04-28T19:12:17.565Z,6.70
2019-04-28T19:17:18.157Z,6.23
2019-04-28T19:22:14.320Z,5.45
2019-04-28T19:27:07.910Z,7.00
2019-04-28T19:32:01.458Z,7.78
2019-04-28T20:19:00.782Z,6.97
2019-04-28T20:23:54.329Z,7.95
2019-04-28T20:28:47.812Z,8.57
2019-04-28T20:33:41.473Z,9.58
2019-04-28T20:38:41.348Z,11.43
2019-04-28T20:43:34.907Z,11.45
2019-04-28T20:48:28.489Z,12.15
2019-04-28T20:53:22.040Z,12.93
2019-04-28T20:58:15.535Z,12.20
2019-04-28T21:03:10.000Z,14.58
2019-04-28T21:08:03.752Z,15.03
2019-04-28T21:13:03.445Z,15.68
2019-04-28T21:17:57.236Z,13.20
2019-04-28T21:22:50.709Z,11.40
2019-04-28T21:27:44.236Z,16.02
2019-04-28T21:32:43.808Z,17.23
2019-04-28T21:37:37.628Z,15.58
2019-04-28T21:42:49.051Z,15.45
2019-04-28T21:47:43.552Z,16.67
2019-04-28T21:52:37.031Z,15.43
2019-04-28T21:57:35.693Z,16.23
2019-04-28T22:02:32.472Z,15.65
2019-04-28T22:07:27.880Z,16.97
2019-04-28T22:12:21.359Z,15.88
2019-04-28T22:17:15.104Z,17.27
2019-04-28T22:22:09.531Z,21.45
2019-04-28T22:27:03.087Z,19.42
2019-04-28T22:31:56.632Z,13.70
2019-04-28T22:36:50.119Z,16.70
2019-04-28T22:41:49.637Z,14.60
2019-04-28T22:46:49.141Z,12.80
2019-04-28T22:51:42.620Z,15.03
2019-04-28T22:56:37.756Z,17.90
2019-04-28T23:01:39.747Z,14.45
2019-04-28T23:06:34.328Z,13.58
2019-04-28T23:11:27.876Z,13.70
2019-04-28T23:16:21.588Z,16.45
2019-04-28T23:21:32.955Z,14.03
2019-04-28T23:26:26.564Z,17.00
2019-04-28T23:31:20.508Z,11.60
2019-04-28T23:36:14.136Z,13.13
2019-04-28T23:41:12.466Z,14.63
2019-04-28T23:46:07.981Z,14.43
2019-04-28T23:51:03.171Z,14.35
2019-04-28T23:55:56.639Z,13.25
